Time;durP1;ratioP1;P1;durP2;ratioP2;P2;SDS_P1;SDS_P2;PMS_P1;PMS_P2;Temp;Humidity;BMP_temperature;BMP_pressure;BME280_temperature;BME280_humidity;BME280_pressure;Samples;Min_cycle;Max_cycle;Signal;HPM_P1;HPM_P2
2023/03/03 00:00:55;;;;;;;20.42;13.63;;;;;;;;;;5030507;28;98340;-76
2023/03/03 00:03:23;;;;;;;22.08;13.68;;;;;;;;;;5030373;27;98777;-76
2023/03/03 00:05:50;;;;;;;17.42;10.15;;;;;;;;;;5030378;27;98879;-76
2023/03/03 00:08:17;;;;;;;17.17;12.88;;;;;;;;;;5031071;28;98269;-76
2023/03/03 00:10:44;;;;;;;18.08;12.40;;;;;;;;;;5033409;27;98987;-76
2023/03/03 00:13:18;;;;;;;19.73;13.40;;;;;;;;;;5030298;27;98386;-76
2023/03/03 00:15:45;;;;;;;16.98;12.02;;;;;;;;;;5030129;27;99540;-76
2023/03/03 00:18:18;;;;;;;14.00;10.35;;;;;;;;;;5029155;27;100289;-76
2023/03/03 00:20:51;;;;;;;20.60;14.52;;;;;;;;;;5031117;28;98185;-77
2023/03/03 00:23:20;;;;;;;13.88;10.80;;;;;;;;;;5029699;27;99504;-77
2023/03/03 00:25:48;;;;;;;10.10;9.00;;;;;;;;;;5030661;28;101241;-76
2023/03/03 00:28:14;;;;;;;16.27;11.68;;;;;;;;;;5030538;28;98048;-75
2023/03/03 00:30:41;;;;;;;21.15;13.73;;;;;;;;;;5011119;27;98365;-77
2023/03/03 00:33:31;;;;;;;21.30;15.32;;;;;;;;;;5012886;28;98742;-76
2023/03/03 00:36:20;;;;;;;14.77;10.90;;;;;;;;;;5010886;28;99532;-76
2023/03/03 00:38:47;;;;;;;24.60;16.25;;;;;;;;;;5008563;28;98430;-77
2023/03/03 00:41:22;;;;;;;24.52;16.10;;;;;;;;;;5010690;28;98066;-76
2023/03/03 00:43:49;;;;;;;18.33;13.05;;;;;;;;;;5009020;28;98694;-76
2023/03/03 00:46:22;;;;;;;22.55;15.15;;;;;;;;;;5008091;28;99240;-76
2023/03/03 00:48:49;;;;;;;;;;;;;;;;;;5046178;27;98513;-76
2023/03/03 00:51:21;;;;;;;24.52;16.70;;;;;;;;;;5028825;28;123478;-76
2023/03/03 00:53:48;;;;;;;31.42;17.73;;;;;;;;;;5028892;27;98744;-76
2023/03/03 00:56:15;;;;;;;29.35;17.13;;;;;;;;;;5034055;28;98130;-77
2023/03/03 00:58:43;;;;;;;20.45;14.68;;;;;;;;;;5028963;28;102119;-77
2023/03/03 01:01:09;;;;;;;24.55;14.93;;;;;;;;;;5029398;28;98269;-76
2023/03/03 01:03:42;;;;;;;16.25;12.18;;;;;;;;;;5016591;28;99291;-76
2023/03/03 01:06:09;;;;;;;34.53;20.15;;;;;;;;;;5007875;28;101979;-77
2023/03/03 01:08:35;;;;;;;34.13;20.10;;;;;;;;;;5011293;27;98211;-76
2023/03/03 01:11:07;;;;;;;30.23;18.75;;;;;;;;;;5029915;27;99957;-76
2023/03/03 01:13:35;;;;;;;33.33;19.67;;;;;;;;;;5029009;27;99094;-76
2023/03/03 01:16:03;;;;;;;22.58;15.65;;;;;;;;;;5028904;28;98418;-74
2023/03/03 01:18:30;;;;;;;41.90;23.75;;;;;;;;;;5031954;28;100364;-75
2023/03/03 01:20:57;;;;;;;19.50;13.55;;;;;;;;;;5014742;28;98303;-76
2023/03/03 01:23:23;;;;;;;35.08;21.02;;;;;;;;;;5009728;28;98640;-77
2023/03/03 01:25:50;;;;;;;30.85;20.63;;;;;;;;;;5008826;28;100242;-76
2023/03/03 01:28:16;;;;;;;36.00;21.52;;;;;;;;;;5007849;28;98283;-76
2023/03/03 01:30:43;;;;;;;38.17;22.98;;;;;;;;;;5008873;28;101580;-76
2023/03/03 01:33:09;;;;;;;35.05;23.10;;;;;;;;;;5008714;28;99065;-76
2023/03/03 01:35:35;;;;;;;36.58;20.38;;;;;;;;;;5009208;28;98235;-78
2023/03/03 01:38:02;;;;;;;31.25;19.27;;;;;;;;;;5008689;28;99467;-75
2023/03/03 01:40:29;;;;;;;36.15;20.73;;;;;;;;;;5011167;28;98357;-75
2023/03/03 01:42:57;;;;;;;25.58;16.58;;;;;;;;;;5016420;27;99163;-75
2023/03/03 01:45:25;;;;;;;33.72;22.55;;;;;;;;;;5027602;28;99305;-76
2023/03/03 01:47:57;;;;;;;28.40;18.02;;;;;;;;;;5029637;28;98643;-75
2023/03/03 01:50:33;;;;;;;39.78;24.92;;;;;;;;;;5029366;28;98836;-76
2023/03/03 01:53:01;;;;;;;33.20;22.40;;;;;;;;;;5026350;27;99479;-76
2023/03/03 01:55:32;;;;;;;30.85;19.92;;;;;;;;;;5010076;27;98257;-75
2023/03/03 01:58:07;;;;;;;31.45;21.88;;;;;;;;;;5008636;28;98528;-76
2023/03/03 02:00:35;;;;;;;31.40;20.42;;;;;;;;;;5011350;28;100069;-76
2023/03/03 02:03:02;;;;;;;29.92;19.15;;;;;;;;;;5008614;28;98851;-77
2023/03/03 02:05:29;;;;;;;40.42;25.23;;;;;;;;;;5008287;28;98828;-76
2023/03/03 02:07:55;;;;;;;40.92;24.45;;;;;;;;;;5009098;27;98199;-77
2023/03/03 02:10:22;;;;;;;32.03;19.67;;;;;;;;;;5025918;28;99608;-77
2023/03/03 02:12:50;;;;;;;27.10;16.50;;;;;;;;;;5007535;28;98930;-77
2023/03/03 02:15:18;;;;;;;40.05;24.48;;;;;;;;;;5041843;27;98472;-77
2023/03/03 02:17:45;;;;;;;33.72;20.92;;;;;;;;;;5008502;28;98418;-77
2023/03/03 02:20:26;;;;;;;28.60;17.33;;;;;;;;;;5007172;28;99009;-77
2023/03/03 02:23:06;;;;;;;34.25;21.10;;;;;;;;;;5038337;27;98324;-77
2023/03/03 02:25:32;;;;;;;26.13;15.52;;;;;;;;;;5047412;27;100288;-77
2023/03/03 02:27:59;;;;;;;38.60;22.77;;;;;;;;;;5034393;27;98359;-77
2023/03/03 02:30:30;;;;;;;43.88;24.52;;;;;;;;;;5007209;28;101066;-77
2023/03/03 02:33:04;;;;;;;38.78;21.95;;;;;;;;;;5007440;28;101785;-77
2023/03/03 02:35:36;;;;;;;43.67;22.33;;;;;;;;;;5027794;27;98101;-76
2023/03/03 02:38:22;;;;;;;38.58;20.83;;;;;;;;;;5028275;27;99059;-76
2023/03/03 02:40:58;;;;;;;26.73;16.88;;;;;;;;;;5028841;28;98902;-76
2023/03/03 02:43:28;;;;;;;34.10;20.38;;;;;;;;;;5027730;27;98236;-77
2023/03/03 02:45:55;;;;;;;37.83;21.65;;;;;;;;;;5030623;27;99931;-76
2023/03/03 02:48:23;;;;;;;28.13;17.25;;;;;;;;;;5017179;28;99072;-76
2023/03/03 02:50:49;;;;;;;23.45;15.27;;;;;;;;;;5008088;28;99243;-77
2023/03/03 02:53:16;;;;;;;35.40;21.10;;;;;;;;;;5007736;28;99099;-76
2023/03/03 02:55:42;;;;;;;31.05;18.08;;;;;;;;;;5008421;28;98310;-76
2023/03/03 02:58:08;;;;;;;29.25;18.17;;;;;;;;;;5009021;28;98410;-76
2023/03/03 03:00:35;;;;;;;34.35;21.67;;;;;;;;;;5006086;28;101614;-76
2023/03/03 03:03:02;;;;;;;28.92;17.50;;;;;;;;;;5023628;28;98601;-76
2023/03/03 03:05:28;;;;;;;29.20;16.38;;;;;;;;;;5027689;28;100642;-76
2023/03/03 03:07:55;;;;;;;26.58;17.80;;;;;;;;;;5029276;28;101306;-76
2023/03/03 03:10:22;;;;;;;36.90;21.25;;;;;;;;;;5028285;27;98190;-76
2023/03/03 03:12:49;;;;;;;27.27;17.13;;;;;;;;;;5025276;28;101947;-76
2023/03/03 03:15:15;;;;;;;36.72;20.55;;;;;;;;;;5027069;28;98179;-77
2023/03/03 03:17:42;;;;;;;29.25;18.40;;;;;;;;;;5030001;27;98492;-77
2023/03/03 03:20:10;;;;;;;30.48;18.23;;;;;;;;;;5012879;28;100808;-76
2023/03/03 03:22:37;;;;;;;25.23;14.43;;;;;;;;;;5010598;28;98257;-76
2023/03/03 03:25:05;;;;;;;40.60;22.13;;;;;;;;;;5010409;28;99548;-76
2023/03/03 03:27:32;;;;;;;26.17;16.33;;;;;;;;;;5009780;28;99747;-76
2023/03/03 03:29:59;;;;;;;35.45;20.30;;;;;;;;;;5013495;28;98500;-76
2023/03/03 03:32:26;;;;;;;25.70;15.32;;;;;;;;;;5010544;28;101306;-76
2023/03/03 03:34:53;;;;;;;28.88;16.63;;;;;;;;;;5009407;28;98229;-76
2023/03/03 03:37:20;;;;;;;27.65;15.52;;;;;;;;;;5011608;28;98272;-75
2023/03/03 03:39:46;;;;;;;27.70;14.38;;;;;;;;;;5039150;27;102498;-77
2023/03/03 03:42:13;;;;;;;26.85;16.30;;;;;;;;;;5011604;28;98697;-77
2023/03/03 03:44:40;;;;;;;30.30;17.60;;;;;;;;;;5010363;28;100885;-76
2023/03/03 03:47:06;;;;;;;32.13;16.30;;;;;;;;;;5009656;28;100002;-76
2023/03/03 03:49:34;;;;;;;25.38;14.60;;;;;;;;;;5031354;28;98315;-77
2023/03/03 03:52:00;;;;;;;32.03;17.30;;;;;;;;;;5029638;28;100821;-77
2023/03/03 03:54:30;;;;;;;26.30;14.70;;;;;;;;;;5028818;28;98215;-77
2023/03/03 03:56:56;;;;;;;33.25;18.23;;;;;;;;;;5028990;27;101125;-76
2023/03/03 03:59:23;;;;;;;29.90;16.70;;;;;;;;;;5031424;27;100094;-77
2023/03/03 04:01:50;;;;;;;31.08;17.35;;;;;;;;;;5028229;28;98264;-77
2023/03/03 04:04:19;;;;;;;34.88;18.98;;;;;;;;;;5029850;28;100863;-77
2023/03/03 04:06:45;;;;;;;38.15;18.23;;;;;;;;;;5031529;27;98679;-76
2023/03/03 04:09:12;;;;;;;38.20;19.33;;;;;;;;;;5028860;27;98353;-76
2023/03/03 04:11:39;;;;;;;26.38;16.38;;;;;;;;;;5014919;28;98536;-76
2023/03/03 04:14:06;;;;;;;26.20;15.25;;;;;;;;;;5009971;28;98386;-76
2023/03/03 04:16:34;;;;;;;31.83;16.70;;;;;;;;;;5010643;28;98472;-76
2023/03/03 04:19:01;;;;;;;25.65;14.45;;;;;;;;;;5009270;28;98926;-76
2023/03/03 04:21:28;;;;;;;35.70;17.67;;;;;;;;;;5009756;28;98755;-77
2023/03/03 04:23:58;;;;;;;23.02;12.13;;;;;;;;;;5008951;28;100933;-76
2023/03/03 04:26:26;;;;;;;29.60;16.40;;;;;;;;;;5043634;27;101221;-77
2023/03/03 04:28:53;;;;;;;24.85;12.45;;;;;;;;;;5029842;27;98158;-76
2023/03/03 04:31:21;;;;;;;31.58;15.50;;;;;;;;;;5027766;28;98491;-76
2023/03/03 04:33:47;;;;;;;30.85;16.02;;;;;;;;;;5031686;27;100229;-76
2023/03/03 04:36:14;;;;;;;26.60;13.95;;;;;;;;;;5012065;27;99294;-76
2023/03/03 04:38:41;;;;;;;27.85;13.43;;;;;;;;;;5008490;28;99446;-76
2023/03/03 04:41:07;;;;;;;16.05;10.63;;;;;;;;;;5009060;28;98335;-76
2023/03/03 04:43:36;;;;;;;17.75;9.60;;;;;;;;;;5011544;28;99475;-76
2023/03/03 04:46:07;;;;;;;17.95;11.20;;;;;;;;;;5007785;28;101245;-76
2023/03/03 04:48:35;;;;;;;29.15;14.95;;;;;;;;;;5020661;28;98330;-77
2023/03/03 04:51:01;;;;;;;34.28;14.57;;;;;;;;;;5027631;28;100501;-76
2023/03/03 04:53:31;;;;;;;32.63;15.50;;;;;;;;;;5028606;28;98974;-77
2023/03/03 04:55:57;;;;;;;44.25;16.17;;;;;;;;;;5033406;28;98201;-77
2023/03/03 04:58:24;;;;;;;37.03;13.25;;;;;;;;;;5030600;28;98716;-76
2023/03/03 05:00:54;;;;;;;54.90;17.45;;;;;;;;;;5024046;28;98386;-76
2023/03/03 05:03:21;;;;;;;43.63;17.27;;;;;;;;;;5013502;28;99326;-76
2023/03/03 05:05:49;;;;;;;44.47;15.98;;;;;;;;;;5027964;28;98164;-76
2023/03/03 05:08:17;;;;;;;49.10;16.45;;;;;;;;;;5036883;27;98384;-76
2023/03/03 05:10:44;;;;;;;79.43;20.73;;;;;;;;;;5036271;28;99419;-76
2023/03/03 05:13:10;;;;;;;55.28;19.40;;;;;;;;;;5032438;27;98813;-77
2023/03/03 05:15:37;;;;;;;47.63;18.40;;;;;;;;;;5032815;28;98193;-77
2023/03/03 05:18:04;;;;;;;46.63;15.32;;;;;;;;;;5029558;27;99302;-77
2023/03/03 05:20:30;;;;;;;49.95;18.10;;;;;;;;;;5010442;28;98699;-77
2023/03/03 05:22:58;;;;;;;58.88;18.60;;;;;;;;;;5011514;28;99573;-77
2023/03/03 05:25:25;;;;;;;52.42;19.08;;;;;;;;;;5010787;28;100152;-76
2023/03/03 05:27:51;;;;;;;46.05;18.52;;;;;;;;;;5010540;28;98275;-76
2023/03/03 05:30:17;;;;;;;38.83;17.02;;;;;;;;;;5021059;27;100056;-75
2023/03/03 05:32:45;;;;;;;100.95;17.13;;;;;;;;;;5029681;28;99992;-76
2023/03/03 05:35:12;;;;;;;62.95;20.17;;;;;;;;;;5020713;27;98064;-76
2023/03/03 05:37:41;;;;;;;47.28;17.95;;;;;;;;;;5009367;28;99630;-75
2023/03/03 05:40:08;;;;;;;45.13;17.08;;;;;;;;;;5011713;28;99947;-76
2023/03/03 05:42:34;;;;;;;57.17;19.45;;;;;;;;;;5008815;28;98890;-76
2023/03/03 05:45:01;;;;;;;66.70;19.40;;;;;;;;;;5009251;28;99207;-76
2023/03/03 05:47:28;;;;;;;45.05;17.73;;;;;;;;;;5008956;28;98226;-77
2023/03/03 05:49:54;;;;;;;55.22;16.73;;;;;;;;;;5009222;28;99709;-76
2023/03/03 05:52:21;;;;;;;63.78;18.80;;;;;;;;;;5017281;28;100080;-76
2023/03/03 05:54:47;;;;;;;35.83;13.60;;;;;;;;;;5028070;27;98133;-76
2023/03/03 05:57:16;;;;;;;50.90;18.15;;;;;;;;;;5030040;28;100557;-76
2023/03/03 05:59:42;;;;;;;58.47;17.15;;;;;;;;;;5031878;27;99468;-76
2023/03/03 06:02:09;;;;;;;56.03;16.85;;;;;;;;;;5028073;28;99363;-76
2023/03/03 06:04:36;;;;;;;44.28;13.27;;;;;;;;;;5028449;27;99098;-76
2023/03/03 06:07:03;;;;;;;50.90;16.00;;;;;;;;;;5029388;27;98666;-76
2023/03/03 06:09:29;;;;;;;46.60;16.50;;;;;;;;;;5026954;27;98718;-76
2023/03/03 06:11:55;;;;;;;54.90;18.15;;;;;;;;;;5028459;27;99981;-76
2023/03/03 06:14:22;;;;;;;81.53;16.58;;;;;;;;;;5028992;28;98088;-76
2023/03/03 06:16:52;;;;;;;64.45;18.65;;;;;;;;;;5028508;27;99645;-76
2023/03/03 06:19:18;;;;;;;61.67;17.77;;;;;;;;;;5028753;27;99154;-76
2023/03/03 06:21:44;;;;;;;57.15;17.63;;;;;;;;;;5031788;27;98265;-76
2023/03/03 06:24:11;;;;;;;54.72;18.17;;;;;;;;;;5027972;28;100245;-76
2023/03/03 06:26:38;;;;;;;59.33;14.18;;;;;;;;;;5028516;28;98291;-76
2023/03/03 06:29:05;;;;;;;70.95;17.15;;;;;;;;;;5027302;27;98571;-76
2023/03/03 06:31:31;;;;;;;53.13;17.88;;;;;;;;;;5027088;27;99095;-75
2023/03/03 06:33:58;;;;;;;41.47;12.52;;;;;;;;;;5029499;27;98221;-76
2023/03/03 06:36:24;;;;;;;57.72;16.85;;;;;;;;;;5028717;27;99527;-76
2023/03/03 06:38:51;;;;;;;87.80;19.30;;;;;;;;;;5027515;28;100218;-75
2023/03/03 06:41:17;;;;;;;83.00;19.17;;;;;;;;;;5028296;27;98315;-76
2023/03/03 06:43:45;;;;;;;68.20;18.20;;;;;;;;;;5018095;27;98623;-76
2023/03/03 06:46:11;;;;;;;59.55;17.23;;;;;;;;;;5008724;28;98266;-76
2023/03/03 06:48:39;;;;;;;80.53;17.98;;;;;;;;;;5020582;28;99593;-76
2023/03/03 06:51:14;;;;;;;78.82;19.73;;;;;;;;;;5026260;27;98939;-76
2023/03/03 06:53:40;;;;;;;70.18;13.95;;;;;;;;;;5029716;27;98290;-76
2023/03/03 06:56:08;;;;;;;99.97;17.02;;;;;;;;;;5032118;28;99545;-76
2023/03/03 06:58:34;;;;;;;100.47;19.52;;;;;;;;;;5031466;27;99053;-75
2023/03/03 07:01:01;;;;;;;46.13;15.70;;;;;;;;;;5021532;28;98229;-75
2023/03/03 07:03:32;;;;;;;74.63;18.02;;;;;;;;;;5027502;27;99447;-75
2023/03/03 07:06:15;;;;;;;65.35;18.20;;;;;;;;;;5022713;28;99791;-76
2023/03/03 07:08:41;;;;;;;62.25;16.83;;;;;;;;;;5015588;28;99443;-75
2023/03/03 07:11:14;;;;;;;49.50;16.42;;;;;;;;;;5015179;28;100671;-75
2023/03/03 07:13:43;;;;;;;50.80;17.15;;;;;;;;;;5011458;28;98433;-77
2023/03/03 07:16:13;;;;;;;52.83;14.50;;;;;;;;;;5010999;28;100366;-76
2023/03/03 07:18:51;;;;;;;44.17;16.55;;;;;;;;;;5024687;28;100074;-75
2023/03/03 07:21:17;;;;;;;48.75;16.02;;;;;;;;;;5026620;28;98173;-76
2023/03/03 07:23:44;;;;;;;50.55;16.98;;;;;;;;;;5031277;28;98431;-76
2023/03/03 07:26:12;;;;;;;48.90;15.57;;;;;;;;;;5030655;28;100424;-76
2023/03/03 07:28:40;;;;;;;28.45;12.95;;;;;;;;;;5033820;28;98217;-75
2023/03/03 07:31:24;;;;;;;29.15;13.75;;;;;;;;;;5014572;27;99885;-76
2023/03/03 07:33:50;;;;;;;34.35;13.65;;;;;;;;;;5030113;28;98320;-76
2023/03/03 07:36:26;;;;;;;26.75;12.65;;;;;;;;;;5028370;27;98689;-75
2023/03/03 07:38:53;;;;;;;36.53;13.00;;;;;;;;;;5031007;27;100171;-75
2023/03/03 07:41:22;;;;;;;33.10;15.18;;;;;;;;;;5030428;27;98265;-75
2023/03/03 07:43:53;;;;;;;36.92;13.90;;;;;;;;;;5029828;27;98789;-76
2023/03/03 07:46:27;;;;;;;29.02;14.55;;;;;;;;;;5027531;27;98923;-76
2023/03/03 07:48:57;;;;;;;30.92;13.38;;;;;;;;;;5018363;27;98451;-76
2023/03/03 07:51:26;;;;;;;21.30;10.13;;;;;;;;;;5026922;27;99169;-76
2023/03/03 07:54:13;;;;;;;23.90;11.65;;;;;;;;;;5021125;28;99567;-76
2023/03/03 07:56:39;;;;;;;28.90;14.23;;;;;;;;;;5032006;28;99750;-75
2023/03/03 07:59:19;;;;;;;23.13;11.63;;;;;;;;;;5030514;27;99399;-78
2023/03/03 08:01:50;;;;;;;21.02;11.20;;;;;;;;;;5030380;27;98846;-75
2023/03/03 08:04:26;;;;;;;23.73;12.10;;;;;;;;;;5028953;27;99460;-76
2023/03/03 08:06:56;;;;;;;26.05;11.35;;;;;;;;;;5021442;28;100096;-76
2023/03/03 08:09:26;;;;;;;23.45;11.63;;;;;;;;;;5009896;28;98243;-76
2023/03/03 08:11:54;;;;;;;24.15;12.30;;;;;;;;;;5028592;28;99222;-76
2023/03/03 08:14:24;;;;;;;22.20;12.10;;;;;;;;;;5031557;27;98349;-75
2023/03/03 08:16:51;;;;;;;21.45;11.80;;;;;;;;;;5030267;27;98067;-76
2023/03/03 08:19:17;;;;;;;23.10;11.65;;;;;;;;;;5031342;28;98986;-81
2023/03/03 08:21:44;;;;;;;23.63;12.40;;;;;;;;;;5031198;28;98184;-75
2023/03/03 08:24:10;;;;;;;22.20;11.40;;;;;;;;;;5027741;27;98586;-76
2023/03/03 08:26:36;;;;;;;28.15;12.52;;;;;;;;;;5030857;28;100064;-76
2023/03/03 08:29:04;;;;;;;18.95;9.50;;;;;;;;;;5029736;27;98304;-75
2023/03/03 08:31:31;;;;;;;14.80;8.93;;;;;;;;;;5031031;28;98661;-75
2023/03/03 08:34:07;;;;;;;16.35;9.07;;;;;;;;;;5032747;27;99064;-76
2023/03/03 08:36:33;;;;;;;21.45;11.32;;;;;;;;;;5030471;28;99879;-75
2023/03/03 08:39:00;;;;;;;17.95;10.80;;;;;;;;;;5030886;28;99903;-76
2023/03/03 08:41:27;;;;;;;16.85;10.60;;;;;;;;;;5030288;27;98300;-74
2023/03/03 08:43:53;;;;;;;14.57;9.65;;;;;;;;;;5029969;27;101046;-77
2023/03/03 08:46:20;;;;;;;20.38;10.70;;;;;;;;;;5030849;28;98129;-77
2023/03/03 08:48:46;;;;;;;22.40;10.30;;;;;;;;;;5030868;27;98296;-78
2023/03/03 08:51:13;;;;;;;22.58;11.52;;;;;;;;;;5030441;28;99529;-76
2023/03/03 08:53:39;;;;;;;17.95;10.48;;;;;;;;;;5030466;28;99926;-76
2023/03/03 08:56:06;;;;;;;18.05;10.45;;;;;;;;;;5031730;28;98208;-76
2023/03/03 08:58:32;;;;;;;15.63;8.95;;;;;;;;;;5029227;28;99958;-76
2023/03/03 09:01:02;;;;;;;17.33;10.95;;;;;;;;;;5030449;27;98233;-77
2023/03/03 09:03:28;;;;;;;16.45;9.63;;;;;;;;;;5030828;27;99621;-76
2023/03/03 09:05:55;;;;;;;17.23;9.85;;;;;;;;;;5029054;27;98973;-77
2023/03/03 09:08:21;;;;;;;12.70;8.00;;;;;;;;;;5030011;28;98225;-77
2023/03/03 09:10:48;;;;;;;23.95;10.40;;;;;;;;;;5030515;27;101182;-77
2023/03/03 09:13:15;;;;;;;14.38;9.30;;;;;;;;;;5029799;28;100088;-76
2023/03/03 09:15:42;;;;;;;15.90;10.50;;;;;;;;;;5030281;27;98293;-76
2023/03/03 09:18:16;;;;;;;15.02;9.45;;;;;;;;;;5033439;27;99259;-76
2023/03/03 09:20:42;;;;;;;15.35;8.05;;;;;;;;;;5030206;27;98014;-76
2023/03/03 09:23:32;;;;;;;9.18;6.22;;;;;;;;;;5029151;27;98059;-76
2023/03/03 09:26:05;;;;;;;16.13;6.95;;;;;;;;;;5021439;28;99009;-76
2023/03/03 09:28:31;;;;;;;11.23;7.05;;;;;;;;;;5030907;28;98873;-76
2023/03/03 09:31:01;;;;;;;10.65;6.70;;;;;;;;;;5030029;28;99847;-76
2023/03/03 09:33:42;;;;;;;9.75;6.45;;;;;;;;;;5029121;27;100037;-76
2023/03/03 09:36:17;;;;;;;10.85;6.65;;;;;;;;;;5029996;28;98162;-76
2023/03/03 09:38:44;;;;;;;9.93;6.75;;;;;;;;;;5029541;27;98528;-76
2023/03/03 09:41:20;;;;;;;10.75;6.50;;;;;;;;;;5032180;27;99148;-78
2023/03/03 09:43:52;;;;;;;8.00;5.18;;;;;;;;;;5029414;28;98880;-77
2023/03/03 09:46:37;;;;;;;9.07;6.15;;;;;;;;;;5029402;28;99338;-77
2023/03/03 09:49:15;;;;;;;8.73;5.63;;;;;;;;;;5029090;28;98220;-77
2023/03/03 09:51:44;;;;;;;8.77;5.85;;;;;;;;;;5029952;28;98656;-77
2023/03/03 09:54:21;;;;;;;10.30;6.05;;;;;;;;;;5028178;27;100164;-77
2023/03/03 09:56:54;;;;;;;15.63;5.72;;;;;;;;;;5029506;28;98232;-77
2023/03/03 09:59:37;;;;;;;10.98;6.38;;;;;;;;;;5014634;27;98438;-77
2023/03/03 10:02:26;;;;;;;6.50;5.38;;;;;;;;;;5010254;28;99904;-78
2023/03/03 10:04:56;;;;;;;7.35;5.15;;;;;;;;;;5015495;28;98235;-77
2023/03/03 10:07:26;;;;;;;9.88;6.75;;;;;;;;;;5010226;28;99095;-77
2023/03/03 10:10:04;;;;;;;5.60;4.80;;;;;;;;;;5009005;28;98876;-77
2023/03/03 10:13:06;;;;;;;6.85;5.10;;;;;;;;;;5015662;27;99404;-77
2023/03/03 10:15:39;;;;;;;7.05;5.00;;;;;;;;;;4991939;28;99137;-77
2023/03/03 10:18:08;;;;;;;6.32;5.10;;;;;;;;;;5031431;27;98252;-76
2023/03/03 10:20:53;;;;;;;5.97;5.13;;;;;;;;;;5029744;27;100842;-76
2023/03/03 10:23:23;;;;;;;9.68;5.47;;;;;;;;;;5029358;28;99949;-77
2023/03/03 10:25:49;;;;;;;7.15;5.03;;;;;;;;;;5033531;27;98027;-77
2023/03/03 10:28:34;;;;;;;10.30;5.45;;;;;;;;;;5028106;27;99176;-76
2023/03/03 10:31:19;;;;;;;6.03;4.68;;;;;;;;;;5028198;28;98425;-76
2023/03/03 10:33:49;;;;;;;6.78;4.95;;;;;;;;;;5028849;27;98621;-77
2023/03/03 10:36:27;;;;;;;5.75;4.28;;;;;;;;;;5027920;28;99183;-77
2023/03/03 10:39:10;;;;;;;14.35;4.65;;;;;;;;;;5028975;28;98218;-77
2023/03/03 10:42:03;;;;;;;5.38;4.55;;;;;;;;;;5028736;27;99766;-77
2023/03/03 10:44:38;;;;;;;5.28;4.78;;;;;;;;;;5025107;28;99244;-77
2023/03/03 10:47:13;;;;;;;8.73;5.40;;;;;;;;;;5029050;27;98348;-77
2023/03/03 10:50:03;;;;;;;6.88;4.85;;;;;;;;;;5032456;28;98652;-77
2023/03/03 10:52:37;;;;;;;10.00;5.30;;;;;;;;;;5029017;27;98044;-78
2023/03/03 10:55:23;;;;;;;5.72;4.45;;;;;;;;;;5009173;27;98673;-77
2023/03/03 10:57:56;;;;;;;6.55;4.80;;;;;;;;;;5007938;28;98840;-77
2023/03/03 11:00:29;;;;;;;8.30;4.93;;;;;;;;;;5009182;28;98686;-77
2023/03/03 11:03:01;;;;;;;4.13;3.78;;;;;;;;;;5009920;28;99458;-77
2023/03/03 11:05:46;;;;;;;9.50;4.70;;;;;;;;;;5009339;28;99822;-77
2023/03/03 11:08:16;;;;;;;5.85;3.58;;;;;;;;;;5009764;28;98233;-78
2023/03/03 11:10:57;;;;;;;3.70;3.45;;;;;;;;;;5029791;28;99440;-77
2023/03/03 11:13:27;;;;;;;5.82;3.42;;;;;;;;;;5033112;28;98261;-77
2023/03/03 11:16:05;;;;;;;10.88;4.45;;;;;;;;;;5044408;28;98880;-76
2023/03/03 11:18:50;;;;;;;4.10;3.80;;;;;;;;;;5032909;28;98857;-76
2023/03/03 11:21:49;;;;;;;7.13;3.60;;;;;;;;;;5016316;28;99356;-75
2023/03/03 11:24:23;;;;;;;5.80;2.60;;;;;;;;;;4992931;27;98649;-76
2023/03/03 11:27:08;;;;;;;4.10;2.88;;;;;;;;;;5021763;27;99116;-78
2023/03/03 11:29:39;;;;;;;3.47;2.55;;;;;;;;;;5024966;28;100824;-76
2023/03/03 11:32:15;;;;;;;5.03;3.67;;;;;;;;;;5014046;28;99399;-76
2023/03/03 11:34:51;;;;;;;3.78;2.75;;;;;;;;;;5026790;27;99895;-75
2023/03/03 11:37:22;;;;;;;4.55;2.85;;;;;;;;;;5013974;27;98180;-76
2023/03/03 11:39:52;;;;;;;3.53;2.53;;;;;;;;;;5029301;27;99253;-76
2023/03/03 11:42:36;;;;;;;2.20;2.10;;;;;;;;;;5026095;27;98134;-76
2023/03/03 11:45:12;;;;;;;6.50;2.75;;;;;;;;;;5027366;28;98670;-77
2023/03/03 11:47:44;;;;;;;6.15;2.20;;;;;;;;;;5014716;28;99341;-75
2023/03/03 11:50:18;;;;;;;6.90;2.72;;;;;;;;;;5014961;28;97964;-74
2023/03/03 11:52:53;;;;;;;5.63;2.58;;;;;;;;;;5044278;27;99920;-76
2023/03/03 11:55:36;;;;;;;4.28;3.88;;;;;;;;;;5010752;28;99015;-76
2023/03/03 11:58:27;;;;;;;4.10;2.85;;;;;;;;;;5011308;28;98301;-75
2023/03/03 12:01:12;;;;;;;5.78;2.53;;;;;;;;;;5009547;28;99482;-76
2023/03/03 12:04:00;;;;;;;3.38;2.35;;;;;;;;;;5011438;28;98220;-76
2023/03/03 12:06:45;;;;;;;1.85;1.75;;;;;;;;;;5011955;28;99384;-75
2023/03/03 12:09:29;;;;;;;4.18;2.00;;;;;;;;;;5014315;28;100088;-76
2023/03/03 12:12:01;;;;;;;3.58;2.08;;;;;;;;;;5011121;28;98474;-77
2023/03/03 12:14:46;;;;;;;5.20;2.50;;;;;;;;;;5010853;28;99735;-77
2023/03/03 12:17:26;;;;;;;5.78;2.47;;;;;;;;;;5008909;28;100445;-76
2023/03/03 12:20:22;;;;;;;5.85;2.70;;;;;;;;;;5020629;28;98276;-74
2023/03/03 12:23:07;;;;;;;2.55;1.88;;;;;;;;;;4974091;27;99585;-75
2023/03/03 12:25:54;;;;;;;4.18;2.22;;;;;;;;;;5031008;27;99864;-75
2023/03/03 12:28:39;;;;;;;7.03;2.00;;;;;;;;;;4995736;27;101801;-75
2023/03/03 12:31:24;;;;;;;2.15;1.80;;;;;;;;;;5020564;28;100127;-76
2023/03/03 12:33:53;;;;;;;3.30;1.52;;;;;;;;;;5020402;28;98427;-76
2023/03/03 12:36:32;;;;;;;2.88;1.85;;;;;;;;;;5029206;27;98342;-75
2023/03/03 12:39:04;;;;;;;3.40;2.00;;;;;;;;;;5021523;27;100076;-75
2023/03/03 12:42:00;;;;;;;2.13;1.67;;;;;;;;;;5029073;27;98357;-77
2023/03/03 12:44:36;;;;;;;3.53;2.40;;;;;;;;;;5029979;28;99949;-76
2023/03/03 12:47:25;;;;;;;3.50;2.20;;;;;;;;;;5030346;28;98890;-77
2023/03/03 12:50:08;;;;;;;3.58;2.08;;;;;;;;;;5020220;27;98733;-77
2023/03/03 12:52:43;;;;;;;6.20;2.00;;;;;;;;;;5024889;28;99016;-77
2023/03/03 12:55:09;;;;;;;4.82;2.20;;;;;;;;;;5025618;27;98349;-77
2023/03/03 12:57:48;;;;;;;3.20;2.25;;;;;;;;;;5020528;28;98848;-76
2023/03/03 13:00:18;;;;;;;5.78;1.88;;;;;;;;;;5024612;27;100793;-74
2023/03/03 13:03:00;;;;;;;6.97;2.03;;;;;;;;;;5026523;27;98341;-76
2023/03/03 13:05:48;;;;;;;3.92;1.92;;;;;;;;;;5022619;27;99812;-74
2023/03/03 13:08:33;;;;;;;4.60;2.22;;;;;;;;;;5018614;28;100905;-75
2023/03/03 13:11:19;;;;;;;4.57;2.80;;;;;;;;;;5022397;27;98179;-75
2023/03/03 13:14:02;;;;;;;7.15;3.28;;;;;;;;;;5020452;27;99241;-75
2023/03/03 13:16:32;;;;;;;3.13;2.90;;;;;;;;;;5028305;27;99049;-75
2023/03/03 13:19:09;;;;;;;2.42;2.22;;;;;;;;;;5025637;27;98092;-75
2023/03/03 13:21:45;;;;;;;4.65;2.63;;;;;;;;;;5026098;27;98147;-74
2023/03/03 13:24:20;;;;;;;2.13;1.92;;;;;;;;;;5023208;27;99607;-75
2023/03/03 13:26:55;;;;;;;4.43;2.20;;;;;;;;;;5020288;28;99543;-75
2023/03/03 13:29:30;;;;;;;3.67;2.72;;;;;;;;;;5018894;28;98201;-75
2023/03/03 13:31:59;;;;;;;4.03;1.92;;;;;;;;;;5023173;28;98346;-75
2023/03/03 13:34:28;;;;;;;3.05;2.03;;;;;;;;;;5033404;28;99590;-76
2023/03/03 13:37:19;;;;;;;5.60;1.98;;;;;;;;;;5027781;28;98241;-76
2023/03/03 13:40:00;;;;;;;2.85;2.28;;;;;;;;;;5020969;28;98525;-77
2023/03/03 13:42:31;;;;;;;2.28;2.08;;;;;;;;;;5020476;28;100126;-76
2023/03/03 13:45:00;;;;;;;4.90;1.80;;;;;;;;;;5029190;27;98294;-77
2023/03/03 13:47:26;;;;;;;3.03;1.58;;;;;;;;;;5025267;27;99604;-77
2023/03/03 13:50:08;;;;;;;2.35;1.95;;;;;;;;;;5029270;27;99122;-76
2023/03/03 13:52:50;;;;;;;5.80;1.93;;;;;;;;;;5026278;27;99416;-77
2023/03/03 13:55:25;;;;;;;6.90;2.28;;;;;;;;;;5023789;28;99511;-78
2023/03/03 13:58:00;;;;;;;2.40;2.20;;;;;;;;;;5026730;27;99251;-77
2023/03/03 14:00:45;;;;;;;3.78;1.80;;;;;;;;;;5017817;28;98638;-77
2023/03/03 14:03:13;;;;;;;2.90;1.55;;;;;;;;;;5027045;28;100070;-77
2023/03/03 14:06:03;;;;;;;1.85;1.70;;;;;;;;;;5025989;27;99438;-77
2023/03/03 14:08:35;;;;;;;3.20;1.83;;;;;;;;;;5018004;28;98557;-76
2023/03/03 14:11:05;;;;;;;6.65;4.10;;;;;;;;;;5018179;28;100013;-77
2023/03/03 14:13:37;;;;;;;5.63;1.15;;;;;;;;;;5026555;28;98278;-77
2023/03/03 14:16:06;;;;;;;3.33;1.88;;;;;;;;;;5028385;27;98832;-78
2023/03/03 14:18:40;;;;;;;3.97;2.13;;;;;;;;;;5028953;27;99031;-77
2023/03/03 14:21:06;;;;;;;3.42;1.70;;;;;;;;;;5018109;27;98276;-77
2023/03/03 14:23:46;;;;;;;2.13;1.23;;;;;;;;;;5014935;27;99606;-76
2023/03/03 14:26:13;;;;;;;2.55;1.20;;;;;;;;;;5022987;28;101703;-77
2023/03/03 14:28:42;;;;;;;1.88;1.05;;;;;;;;;;5019151;28;99305;-78
2023/03/03 14:31:24;;;;;;;4.68;1.60;;;;;;;;;;5018347;27;99526;-78
2023/03/03 14:34:14;;;;;;;1.08;1.00;;;;;;;;;;5027663;27;98261;-78
2023/03/03 14:36:41;;;;;;;1.15;1.10;;;;;;;;;;5028172;27;98593;-77
2023/03/03 14:39:24;;;;;;;1.10;0.85;;;;;;;;;;5027988;27;99270;-77
2023/03/03 14:41:51;;;;;;;1.27;1.23;;;;;;;;;;5028414;27;98360;-77
2023/03/03 14:44:25;;;;;;;2.15;0.73;;;;;;;;;;5026660;27;98982;-77
2023/03/03 14:47:04;;;;;;;2.05;1.23;;;;;;;;;;5026220;27;98813;-76
2023/03/03 14:49:32;;;;;;;5.72;1.30;;;;;;;;;;5023415;27;100086;-76